Time;durP1;ratioP1;P1;durP2;ratioP2;P2;SDS_P1;SDS_P2;PMS_P1;PMS_P2;Temp;Humidity;BMP_temperature;BMP_pressure;BME280_temperature;BME280_humidity;BME280_pressure;Samples;Min_cycle;Max_cycle;Signal;HPM_P1;HPM_P2
2023/09/18 00:02:20;;;;;;;0.00;0.00;;;;;;;27.46;55.33;100779.03;5090426;28;20024;-70
2023/09/18 00:04:46;;;;;;;0.00;0.00;;;;;;;27.43;55.01;100772.22;5090326;28;20392;-70
2023/09/18 00:07:11;;;;;;;0.00;0.00;;;;;;;27.45;55.12;100758.88;5089359;28;20036;-71
2023/09/18 00:09:36;;;;;;;0.10;0.00;;;;;;;27.48;55.03;100740.81;5069920;28;20037;-71
2023/09/18 00:12:02;;;;;;;0.00;0.00;;;;;;;27.53;54.84;100733.16;5069876;28;20521;-69
2023/09/18 00:14:27;;;;;;;0.00;0.00;;;;;;;27.57;54.80;100734.09;5069482;28;20036;-68
2023/09/18 00:16:53;;;;;;;0.00;0.00;;;;;;;27.58;55.21;100718.31;5070253;28;20058;-70
2023/09/18 00:19:18;;;;;;;0.00;0.00;;;;;;;27.57;55.16;100716.69;5069781;28;20040;-70
2023/09/18 00:21:44;;;;;;;0.00;0.00;;;;;;;27.68;55.23;100706.81;5069829;28;20037;-70
2023/09/18 00:24:11;;;;;;;0.00;0.00;;;;;;;27.78;55.33;100696.16;5071439;28;20411;-70
2023/09/18 00:26:36;;;;;;;0.00;0.00;;;;;;;27.85;55.12;100694.78;5073826;28;20039;-69
2023/09/18 00:29:02;;;;;;;0.00;0.00;;;;;;;27.17;57.74;100690.78;5073897;28;20040;-71
2023/09/18 00:31:27;;;;;;;0.00;0.00;;;;;;;27.20;58.81;100684.59;5055024;28;20078;-71
2023/09/18 00:33:52;;;;;;;0.00;0.00;;;;;;;27.48;57.66;100680.91;5073906;28;20029;-71
2023/09/18 00:36:18;;;;;;;0.00;0.00;;;;;;;27.55;58.06;100677.59;5073616;28;20032;-71
2023/09/18 00:38:44;;;;;;;0.00;0.00;;;;;;;27.68;57.03;100671.72;5073780;28;20478;-70
2023/09/18 00:41:09;;;;;;;0.00;0.00;;;;;;;28.14;55.64;100670.53;5074104;28;20029;-71
2023/09/18 00:43:35;;;;;;;0.00;0.00;;;;;;;27.96;55.86;100663.63;5074380;28;20055;-71
2023/09/18 00:46:01;;;;;;;0.00;0.00;;;;;;;27.61;57.97;100652.19;5093961;28;20024;-71
2023/09/18 00:48:27;;;;;;;0.00;0.00;;;;;;;28.34;55.65;100649.41;5075180;28;20040;-70
2023/09/18 00:50:53;;;;;;;0.00;0.00;;;;;;;28.10;56.39;100650.25;5093893;28;20032;-71
2023/09/18 00:53:23;;;;;;;0.00;0.00;;;;;;;27.75;57.67;100638.03;5094127;28;20024;-71
2023/09/18 00:55:51;;;;;;;0.00;0.00;;;;;;;27.93;57.19;100644.91;5093611;28;20404;-70
2023/09/18 00:58:17;;;;;;;0.00;0.00;;;;;;;27.84;57.83;100638.72;5093500;28;20032;-71
2023/09/18 01:00:44;;;;;;;0.00;0.00;;;;;;;28.04;56.93;100642.53;5093517;28;20522;-71
2023/09/18 01:03:10;;;;;;;0.00;0.00;;;;;;;28.22;56.80;100643.91;5093503;28;20033;-71
2023/09/18 01:05:36;;;;;;;0.00;0.00;;;;;;;28.25;55.93;100637.66;5093413;28;20106;-68
2023/09/18 01:08:01;;;;;;;0.00;0.00;;;;;;;28.55;55.42;100630.72;5085811;28;20028;-71
2023/09/18 01:10:48;;;;;;;0.00;0.00;;;;;;;28.57;55.12;100634.75;5073157;28;20043;-70
2023/09/18 01:13:18;;;;;;;0.00;0.00;;;;;;;28.03;57.12;100624.38;5089597;28;20048;-70
2023/09/18 01:15:51;;;;;;;0.00;0.00;;;;;;;28.27;56.61;100613.25;5068603;28;20816;-71
2023/09/18 01:18:18;;;;;;;0.00;0.00;;;;;;;28.34;55.85;100605.97;5072742;28;20519;-71
2023/09/18 01:20:44;;;;;;;0.00;0.00;;;;;;;28.12;56.77;100608.44;5072468;28;20020;-69
2023/09/18 01:23:11;;;;;;;0.00;0.00;;;;;;;28.13;56.30;100604.53;5073220;28;20032;-71
2023/09/18 01:25:37;;;;;;;0.00;0.00;;;;;;;28.27;56.80;100602.19;5072769;28;20033;-71
2023/09/18 01:28:02;;;;;;;0.00;0.00;;;;;;;28.39;55.93;100602.16;5054378;28;20028;-71
2023/09/18 01:30:28;;;;;;;0.00;0.00;;;;;;;28.55;55.71;100605.84;5072217;28;20094;-70
2023/09/18 01:32:55;;;;;;;0.00;0.00;;;;;;;28.72;54.76;100600.00;5072613;28;20128;-69
2023/09/18 01:35:22;;;;;;;0.00;0.00;;;;;;;28.32;55.69;100597.25;5072209;28;20024;-70
2023/09/18 01:37:50;;;;;;;0.00;0.00;;;;;;;28.39;56.19;100583.63;5072879;28;20668;-70
2023/09/18 01:40:15;;;;;;;0.00;0.00;;;;;;;28.49;55.42;100585.91;5072658;28;20543;-71
2023/09/18 01:42:41;;;;;;;0.00;0.00;;;;;;;28.41;55.84;100575.78;5054381;28;20048;-70
2023/09/18 01:45:07;;;;;;;0.00;0.00;;;;;;;28.46;56.03;100563.69;5086505;28;20550;-71
2023/09/18 01:47:33;;;;;;;0.00;0.00;;;;;;;28.58;54.48;100561.69;5092675;28;20153;-68
2023/09/18 01:50:05;;;;;;;0.00;0.00;;;;;;;28.52;55.47;100567.81;5074798;28;20031;-70
2023/09/18 01:52:31;;;;;;;0.00;0.00;;;;;;;28.48;55.17;100566.91;5092020;28;20142;-70
2023/09/18 01:54:56;;;;;;;0.00;0.00;;;;;;;28.41;55.73;100564.72;5092538;28;20066;-69
2023/09/18 01:57:21;;;;;;;0.00;0.00;;;;;;;28.46;55.59;100545.13;5073967;28;20028;-70
2023/09/18 01:59:47;;;;;;;0.00;0.00;;;;;;;27.96;57.33;100525.47;5092190;28;20036;-70
2023/09/18 02:02:12;;;;;;;0.00;0.00;;;;;;;28.02;57.08;100529.63;5074089;28;20028;-71
2023/09/18 02:04:38;;;;;;;0.00;0.00;;;;;;;28.01;56.99;100529.97;5092418;28;20516;-71
2023/09/18 02:07:03;;;;;;;0.00;0.00;;;;;;;28.43;55.90;100534.78;5092380;28;20058;-70
2023/09/18 02:09:29;;;;;;;0.00;0.00;;;;;;;28.48;55.67;100528.19;5088829;28;20101;-69
2023/09/18 02:11:54;;;;;;;0.00;0.00;;;;;;;28.44;55.52;100510.69;5092125;28;20028;-69
2023/09/18 02:14:20;;;;;;;0.00;0.00;;;;;;;28.42;55.36;100507.50;5092194;28;20058;-69
2023/09/18 02:16:46;;;;;;;0.00;0.00;;;;;;;28.29;56.41;100505.91;5076843;28;20040;-70
2023/09/18 02:19:13;;;;;;;0.00;0.00;;;;;;;28.44;55.45;100508.72;5053607;28;20049;-72
2023/09/18 02:21:39;;;;;;;0.00;0.00;;;;;;;28.31;55.93;100504.41;5071656;28;20040;-71
2023/09/18 02:24:04;;;;;;;0.00;0.00;;;;;;;28.26;55.93;100503.88;5071920;28;20036;-70
2023/09/18 02:26:30;;;;;;;0.00;0.00;;;;;;;27.64;58.02;100494.09;5071842;28;20028;-70
2023/09/18 02:28:59;;;;;;;0.00;0.00;;;;;;;27.81;57.80;100493.03;5071836;28;20056;-71
2023/09/18 02:31:25;;;;;;;0.00;0.00;;;;;;;27.88;57.55;100489.66;5071480;28;20120;-70
2023/09/18 02:33:50;;;;;;;0.00;0.00;;;;;;;27.60;58.41;100484.88;5071595;28;20035;-70
2023/09/18 02:36:16;;;;;;;0.00;0.00;;;;;;;27.90;57.17;100490.13;5071238;28;20041;-70
2023/09/18 02:38:41;;;;;;;0.00;0.00;;;;;;;28.30;55.83;100496.47;5071573;28;20119;-70
2023/09/18 02:41:07;;;;;;;0.00;0.00;;;;;;;28.44;55.26;100499.66;5071627;28;20031;-71
2023/09/18 02:43:32;;;;;;;0.00;0.00;;;;;;;28.38;55.61;100496.31;5071103;28;20116;-71
2023/09/18 02:45:58;;;;;;;0.00;0.00;;;;;;;28.46;55.54;100489.81;5091250;28;20036;-70
2023/09/18 02:48:23;;;;;;;0.00;0.00;;;;;;;28.48;55.98;100487.50;5091433;28;20028;-72
2023/09/18 02:50:48;;;;;;;0.00;0.00;;;;;;;28.63;55.08;100491.50;5091467;28;20028;-72
2023/09/18 02:53:32;;;;;;;0.00;0.00;;;;;;;28.74;54.64;100483.50;5091789;28;20503;-72
2023/09/18 02:55:59;;;;;;;0.00;0.00;;;;;;;28.56;55.32;100472.75;5091403;28;20480;-71
2023/09/18 02:58:25;;;;;;;0.00;0.00;;;;;;;28.54;55.56;100468.69;5069429;28;20094;-71
2023/09/18 03:00:53;;;;;;;0.00;0.00;;;;;;;28.46;55.61;100464.94;5070990;28;20444;-71
2023/09/18 03:03:18;;;;;;;0.00;0.00;;;;;;;28.46;55.48;100458.63;5070801;28;20373;-70
2023/09/18 03:05:44;;;;;;;0.00;0.00;;;;;;;28.42;55.51;100455.75;5087640;28;20036;-70
2023/09/18 03:08:11;;;;;;;0.00;0.00;;;;;;;28.37;55.79;100435.84;5082538;28;20016;-70
2023/09/18 03:10:40;;;;;;;0.00;0.00;;;;;;;28.00;56.77;100431.66;5070829;28;20168;-70
2023/09/18 03:13:06;;;;;;;0.00;0.00;;;;;;;28.05;56.30;100429.44;5070689;28;20032;-70
2023/09/18 03:15:31;;;;;;;0.00;0.00;;;;;;;28.13;56.33;100420.19;5070361;28;20052;-71
2023/09/18 03:17:58;;;;;;;0.00;0.00;;;;;;;28.10;56.53;100412.63;5070696;28;20123;-69
2023/09/18 03:20:28;;;;;;;0.00;0.00;;;;;;;28.13;56.22;100397.28;5071141;28;20028;-70
2023/09/18 03:22:55;;;;;;;0.00;0.00;;;;;;;28.33;55.53;100394.28;5070698;28;20029;-71
2023/09/18 03:25:21;;;;;;;0.00;0.00;;;;;;;28.20;55.91;100389.19;5070499;28;20568;-70
2023/09/18 03:27:47;;;;;;;0.00;0.00;;;;;;;28.25;55.23;100378.69;5070572;28;20028;-70
2023/09/18 03:30:15;;;;;;;0.00;0.00;;;;;;;28.10;55.79;100362.88;5070502;28;20041;-69
2023/09/18 03:32:41;;;;;;;0.00;0.00;;;;;;;28.10;56.38;100348.25;5070267;28;20074;-68
2023/09/18 03:35:08;;;;;;;0.00;0.00;;;;;;;28.26;55.89;100333.31;5070985;28;20028;-70
2023/09/18 03:37:34;;;;;;;0.00;0.00;;;;;;;27.87;57.29;100325.09;5070558;28;20040;-71
2023/09/18 03:39:59;;;;;;;0.00;0.00;;;;;;;27.33;59.08;100316.44;5070284;28;20028;-70
2023/09/18 03:42:26;;;;;;;0.00;0.00;;;;;;;27.94;57.06;100320.56;5070196;28;20056;-71
2023/09/18 03:44:51;;;;;;;0.00;0.00;;;;;;;28.16;56.29;100317.25;5076699;28;20028;-70
2023/09/18 03:47:16;;;;;;;0.10;0.10;;;;;;;28.23;55.92;100320.19;5091070;28;20039;-71
2023/09/18 03:49:42;;;;;;;0.00;0.00;;;;;;;28.32;55.67;100312.53;5090672;28;20369;-71
2023/09/18 03:52:07;;;;;;;0.00;0.00;;;;;;;28.31;55.37;100312.88;5090303;28;20044;-70
2023/09/18 03:54:32;;;;;;;0.00;0.00;;;;;;;28.34;55.71;100299.13;5090335;28;20032;-71
2023/09/18 03:56:58;;;;;;;0.00;0.00;;;;;;;28.25;55.61;100301.28;5090418;28;20032;-69
2023/09/18 03:59:23;;;;;;;0.00;0.00;;;;;;;28.07;56.44;100311.06;5090227;28;20028;-71
2023/09/18 04:01:49;;;;;;;0.00;0.00;;;;;;;28.20;56.25;100311.81;5076680;28;20127;-70
2023/09/18 04:04:15;;;;;;;0.00;0.00;;;;;;;28.41;55.38;100298.53;5058488;28;20033;-70
2023/09/18 04:06:42;;;;;;;0.00;0.00;;;;;;;28.28;55.45;100297.03;5067163;28;20048;-70
2023/09/18 04:09:08;;;;;;;0.00;0.00;;;;;;;28.33;55.32;100292.03;5064202;28;20033;-71
2023/09/18 04:11:33;;;;;;;0.00;0.00;;;;;;;28.34;55.48;100282.56;5069463;28;20021;-69
2023/09/18 04:14:00;;;;;;;0.00;0.00;;;;;;;28.39;55.15;100287.84;5070154;28;20028;-70
2023/09/18 04:16:27;;;;;;;0.00;0.00;;;;;;;28.40;55.16;100285.88;5069039;28;20554;-70
2023/09/18 04:18:53;;;;;;;0.00;0.00;;;;;;;28.37;55.73;100279.09;5069087;28;20040;-70
2023/09/18 04:21:19;;;;;;;0.00;0.00;;;;;;;28.41;55.57;100271.69;5069986;28;20032;-71
2023/09/18 04:23:44;;;;;;;0.00;0.00;;;;;;;28.53;54.83;100279.06;5070039;28;20069;-70
2023/09/18 04:26:10;;;;;;;0.00;0.00;;;;;;;28.50;55.04;100272.28;5070352;28;20032;-71
2023/09/18 04:28:36;;;;;;;0.00;0.00;;;;;;;28.45;55.64;100280.88;5069771;28;20554;-71
2023/09/18 04:31:01;;;;;;;0.00;0.00;;;;;;;28.36;55.63;100273.94;5069724;28;20048;-71
2023/09/18 04:33:28;;;;;;;0.00;0.00;;;;;;;28.43;55.84;100274.91;5069827;28;20544;-70
2023/09/18 04:35:54;;;;;;;0.00;0.00;;;;;;;28.54;55.23;100280.66;5069989;28;20024;-71
2023/09/18 04:38:19;;;;;;;0.00;0.00;;;;;;;28.30;56.01;100269.81;5070462;28;20519;-70
2023/09/18 04:40:45;;;;;;;0.00;0.00;;;;;;;28.47;55.74;100272.22;5051720;28;20485;-70
2023/09/18 04:43:11;;;;;;;0.00;0.00;;;;;;;28.46;55.41;100279.69;5069653;28;20816;-71
2023/09/18 04:45:37;;;;;;;0.00;0.00;;;;;;;28.53;55.32;100288.19;5069229;28;20028;-71
2023/09/18 04:48:02;;;;;;;0.00;0.00;;;;;;;28.42;55.30;100287.09;5090015;28;20028;-71
2023/09/18 04:50:29;;;;;;;0.00;0.00;;;;;;;28.62;55.43;100285.25;5089799;28;20097;-71
2023/09/18 04:52:55;;;;;;;0.00;0.00;;;;;;;28.17;57.34;100273.81;5090424;28;20051;-71
2023/09/18 04:55:21;;;;;;;0.00;0.00;;;;;;;28.24;56.65;100254.66;5089736;28;20028;-71
2023/09/18 04:57:46;;;;;;;0.00;0.00;;;;;;;28.43;56.53;100251.97;5089468;28;20612;-70
2023/09/18 05:00:13;;;;;;;0.00;0.00;;;;;;;28.42;56.46;100248.41;5089488;28;20077;-70
2023/09/18 05:02:40;;;;;;;0.00;0.00;;;;;;;28.60;55.69;100244.13;5075657;28;20470;-69
2023/09/18 05:05:08;;;;;;;0.00;0.00;;;;;;;28.63;55.58;100234.31;5070079;28;20109;-70
2023/09/18 05:07:34;;;;;;;0.00;0.00;;;;;;;28.43;55.84;100227.09;5062398;28;20035;-71
2023/09/18 05:09:59;;;;;;;0.00;0.00;;;;;;;28.45;56.10;100236.63;5057479;28;20037;-70
2023/09/18 05:12:24;;;;;;;0.00;0.00;;;;;;;28.43;55.98;100240.91;5059399;28;20032;-71
2023/09/18 05:14:51;;;;;;;0.00;0.00;;;;;;;28.34;56.35;100232.81;5072635;28;20044;-69
2023/09/18 05:17:17;;;;;;;0.00;0.00;;;;;;;28.49;55.92;100220.94;5073292;28;20816;-69
2023/09/18 05:19:43;;;;;;;0.00;0.00;;;;;;;28.31;56.19;100216.13;5054898;28;20507;-71
2023/09/18 05:22:12;;;;;;;0.00;0.00;;;;;;;28.43;55.74;100205.78;5072509;28;20036;-71
2023/09/18 05:24:38;;;;;;;0.00;0.00;;;;;;;28.22;56.35;100224.63;5072234;28;20539;-71
2023/09/18 05:27:06;;;;;;;0.00;0.00;;;;;;;28.49;55.86;100232.00;5072266;28;20097;-71
2023/09/18 05:29:31;;;;;;;0.00;0.00;;;;;;;28.44;56.56;100242.53;5072110;28;20028;-71
2023/09/18 05:31:57;;;;;;;0.00;0.00;;;;;;;28.47;55.94;100256.44;5075276;28;20044;-71
2023/09/18 05:34:22;;;;;;;0.00;0.00;;;;;;;28.40;56.09;100261.00;5079312;28;20044;-71
2023/09/18 05:36:48;;;;;;;0.00;0.00;;;;;;;28.30;56.61;100276.16;5072118;28;20032;-72
2023/09/18 05:39:14;;;;;;;0.00;0.00;;;;;;;28.30;56.61;100283.66;5064267;28;20066;-72
2023/09/18 05:41:39;;;;;;;0.00;0.00;;;;;;;28.15;56.91;100282.47;5065392;28;20028;-69
2023/09/18 05:44:07;;;;;;;0.00;0.00;;;;;;;28.10;57.35;100281.94;5085776;28;20036;-71
2023/09/18 05:46:34;;;;;;;0.00;0.00;;;;;;;28.06;57.75;100276.31;5091911;28;20062;-71
2023/09/18 05:49:00;;;;;;;0.00;0.00;;;;;;;28.17;57.50;100282.09;5092440;28;20032;-71
2023/09/18 05:51:26;;;;;;;0.00;0.00;;;;;;;27.70;59.06;100293.06;5091883;28;20050;-70
2023/09/18 05:53:51;;;;;;;0.00;0.00;;;;;;;26.75;63.63;100287.47;5091909;28;20043;-69
2023/09/18 05:56:17;;;;;;;0.00;0.00;;;;;;;26.84;62.88;100280.66;5092614;28;20110;-70
2023/09/18 05:58:43;;;;;;;0.00;0.00;;;;;;;26.83;63.25;100281.00;5092167;28;20138;-70
2023/09/18 06:01:09;;;;;;;0.00;0.00;;;;;;;26.53;65.21;100268.59;5073737;28;20067;-71
2023/09/18 06:03:35;;;;;;;0.00;0.00;;;;;;;26.70;64.69;100257.31;5074235;28;20131;-71
2023/09/18 06:06:08;;;;;;;0.00;0.00;;;;;;;26.60;64.90;100246.75;5053964;28;20518;-71
2023/09/18 06:08:34;;;;;;;0.00;0.00;;;;;;;26.30;66.26;100259.97;5072033;28;20031;-69
2023/09/18 06:10:59;;;;;;;0.00;0.00;;;;;;;26.71;65.60;100261.75;5071767;28;20481;-70
2023/09/18 06:13:25;;;;;;;0.00;0.00;;;;;;;27.58;61.86;100269.09;5071640;28;20044;-70
2023/09/18 06:15:54;;;;;;;0.00;0.00;;;;;;;26.92;65.12;100270.66;5071366;28;20036;-69
2023/09/18 06:18:20;;;;;;;0.00;0.00;;;;;;;26.43;66.38;100299.38;5071792;28;20032;-71
2023/09/18 06:20:46;;;;;;;0.00;0.00;;;;;;;27.34;63.16;100291.25;5071640;28;20622;-73
2023/09/18 06:23:12;;;;;;;0.00;0.00;;;;;;;28.71;58.67;100277.56;5071762;28;20020;-72
2023/09/18 06:25:38;;;;;;;0.00;0.00;;;;;;;28.87;57.36;100267.28;5071331;28;20044;-71
2023/09/18 06:28:04;;;;;;;0.00;0.00;;;;;;;29.00;57.07;100270.69;5071357;28;20037;-72
2023/09/18 06:30:34;;;;;;;0.00;0.00;;;;;;;28.97;56.66;100257.59;5070942;28;20067;-71
2023/09/18 06:33:01;;;;;;;0.00;0.00;;;;;;;29.00;56.77;100260.44;5071075;28;20415;-69
2023/09/18 06:35:26;;;;;;;0.10;0.10;;;;;;;29.02;56.63;100260.06;5071721;28;20495;-70
2023/09/18 06:37:54;;;;;;;0.00;0.00;;;;;;;29.02;56.93;100269.19;5070789;28;20032;-70
2023/09/18 06:40:19;;;;;;;0.00;0.00;;;;;;;29.07;56.89;100260.59;5070852;28;20041;-69
2023/09/18 06:42:44;;;;;;;0.00;0.00;;;;;;;29.00;57.28;100259.63;5070815;28;20040;-69
2023/09/18 06:45:11;;;;;;;0.00;0.00;;;;;;;29.08;56.97;100272.47;5085149;28;20032;-68
2023/09/18 06:47:37;;;;;;;0.00;0.00;;;;;;;29.00;57.08;100262.41;5091337;28;20024;-68
2023/09/18 06:50:04;;;;;;;0.00;0.00;;;;;;;29.28;56.48;100263.03;5073222;28;20219;-70
2023/09/18 06:52:30;;;;;;;0.00;0.00;;;;;;;29.15;57.49;100267.13;5091055;28;20093;-70
2023/09/18 06:54:57;;;;;;;0.00;0.00;;;;;;;29.17;56.92;100270.34;5091055;28;20568;-70
2023/09/18 06:57:23;;;;;;;0.00;0.00;;;;;;;29.23;56.91;100274.38;5090215;28;20032;-70
2023/09/18 06:59:48;;;;;;;0.00;0.00;;;;;;;29.21;56.82;100277.53;5072199;28;20044;-69
2023/09/18 07:02:16;;;;;;;0.00;0.00;;;;;;;29.11;57.09;100307.72;5070109;28;20431;-70
2023/09/18 07:04:45;;;;;;;0.00;0.00;;;;;;;29.23;56.82;100310.38;5069512;28;20106;-69
2023/09/18 07:07:15;;;;;;;0.00;0.00;;;;;;;28.85;57.54;100316.63;5069685;28;20037;-70
2023/09/18 07:09:41;;;;;;;0.00;0.00;;;;;;;28.70;58.57;100311.91;5069652;28;20032;-70
2023/09/18 07:12:09;;;;;;;0.00;0.00;;;;;;;28.82;58.46;100311.81;5069644;28;20025;-70
2023/09/18 07:14:35;;;;;;;0.00;0.00;;;;;;;28.44;59.08;100309.66;5069348;28;20484;-69
2023/09/18 07:17:01;;;;;;;0.00;0.00;;;;;;;28.24;60.42;100307.19;5070064;28;20035;-70
2023/09/18 07:19:26;;;;;;;0.00;0.00;;;;;;;28.72;58.77;100289.44;5069442;28;20032;-70
2023/09/18 07:21:52;;;;;;;0.00;0.00;;;;;;;28.29;59.68;100301.38;5069230;28;20032;-68
2023/09/18 07:24:17;;;;;;;0.00;0.00;;;;;;;29.09;57.96;100288.69;5050699;28;20059;-69
2023/09/18 07:26:47;;;;;;;0.00;0.00;;;;;;;28.27;60.24;100303.69;5069490;28;20035;-68
2023/09/18 07:29:14;;;;;;;0.00;0.00;;;;;;;27.87;62.35;100291.97;5069468;28;20032;-68
2023/09/18 07:31:40;;;;;;;0.00;0.00;;;;;;;28.43;61.58;100294.25;5069144;28;20040;-69
2023/09/18 07:34:06;;;;;;;0.00;0.00;;;;;;;28.19;61.46;100304.66;5068594;28;20033;-69
2023/09/18 07:36:31;;;;;;;0.00;0.00;;;;;;;28.96;59.33;100297.50;5069125;28;20562;-69
2023/09/18 07:38:57;;;;;;;0.00;0.00;;;;;;;29.19;58.57;100277.09;5069979;28;20052;-69
2023/09/18 07:41:23;;;;;;;0.00;0.00;;;;;;;28.66;60.30;100275.06;5070768;28;20024;-70
2023/09/18 07:43:48;;;;;;;0.00;0.00;;;;;;;29.24;58.19;100276.81;5072812;28;20028;-70
2023/09/18 07:46:14;;;;;;;0.00;0.00;;;;;;;28.38;61.30;100288.19;5089879;28;20593;-69
2023/09/18 07:48:39;;;;;;;0.00;0.00;;;;;;;28.43;60.95;100276.84;5090267;28;20047;-70
2023/09/18 07:51:05;;;;;;;0.00;0.00;;;;;;;28.99;59.38;100280.97;5072071;28;20553;-69
2023/09/18 07:53:32;;;;;;;0.00;0.00;;;;;;;28.93;60.23;100282.44;5090127;28;20016;-69
2023/09/18 07:55:58;;;;;;;0.00;0.00;;;;;;;28.57;61.63;100288.28;5073984;28;20024;-70
2023/09/18 07:58:27;;;;;;;0.00;0.00;;;;;;;28.19;63.52;100286.13;5069891;28;20036;-70
2023/09/18 08:00:59;;;;;;;0.00;0.00;;;;;;;28.37;62.75;100281.03;5069703;28;20044;-70
2023/09/18 08:03:26;;;;;;;0.00;0.00;;;;;;;29.34;59.63;100284.56;5069783;28;20690;-70
2023/09/18 08:05:53;;;;;;;0.00;0.00;;;;;;;29.29;59.13;100279.28;5069668;28;20501;-70
2023/09/18 08:08:23;;;;;;;0.00;0.00;;;;;;;29.10;60.23;100287.56;5070285;28;20056;-70
2023/09/18 08:10:51;;;;;;;0.00;0.00;;;;;;;28.44;62.13;100301.38;5069971;28;20040;-70
2023/09/18 08:13:17;;;;;;;0.00;0.00;;;;;;;28.50;61.63;100296.41;5070011;28;20109;-70
2023/09/18 08:15:43;;;;;;;0.00;0.00;;;;;;;28.21;64.60;100294.88;5069373;28;20492;-70
2023/09/18 08:18:10;;;;;;;0.00;0.00;;;;;;;28.62;63.14;100305.41;5069965;28;20043;-70
2023/09/18 08:20:39;;;;;;;0.00;0.00;;;;;;;28.09;64.17;100305.22;5069978;28;20603;-70
2023/09/18 08:23:05;;;;;;;0.00;0.00;;;;;;;27.54;66.64;100292.22;5070172;28;20040;-69
2023/09/18 08:25:31;;;;;;;0.00;0.00;;;;;;;28.58;62.98;100299.00;5069497;28;20046;-69
2023/09/18 08:27:56;;;;;;;0.00;0.00;;;;;;;28.31;63.06;100305.41;5069684;28;20037;-69
2023/09/18 08:30:24;;;;;;;0.00;0.00;;;;;;;28.35;62.74;100314.59;5069690;28;20052;-70
2023/09/18 08:32:49;;;;;;;0.00;0.00;;;;;;;27.24;66.71;100318.53;5069297;28;20033;-68
2023/09/18 08:35:15;;;;;;;0.00;0.00;;;;;;;28.35;63.50;100316.53;5070520;28;20090;-70
2023/09/18 08:37:41;;;;;;;0.00;0.00;;;;;;;27.64;64.75;100313.81;5069356;28;20079;-69
2023/09/18 08:40:10;;;;;;;0.00;0.00;;;;;;;28.27;63.42;100306.44;5069618;28;20044;-70
2023/09/18 08:42:39;;;;;;;0.00;0.00;;;;;;;28.34;62.85;100318.50;5080632;28;20044;-70
2023/09/18 08:45:09;;;;;;;0.00;0.00;;;;;;;27.60;64.13;100315.66;5090819;28;20032;-68
2023/09/18 08:47:35;;;;;;;0.00;0.00;;;;;;;28.48;61.84;100313.31;5093592;28;20028;-68
2023/09/18 08:50:01;;;;;;;0.00;0.00;;;;;;;28.60;61.42;100315.22;5094111;28;20050;-69
2023/09/18 08:52:27;;;;;;;0.00;0.00;;;;;;;28.30;61.06;100305.75;5074674;28;20036;-69
2023/09/18 08:54:55;;;;;;;0.00;0.00;;;;;;;28.42;61.10;100300.16;5073245;28;20024;-69
2023/09/18 08:57:21;;;;;;;0.00;0.00;;;;;;;28.44;62.25;100301.38;5073038;28;20041;-70
2023/09/18 08:59:48;;;;;;;0.00;0.00;;;;;;;28.49;60.37;100311.38;5072952;28;20041;-70
2023/09/18 09:02:14;;;;;;;0.00;0.00;;;;;;;28.63;60.99;100328.34;5073430;28;20109;-70
2023/09/18 09:04:39;;;;;;;0.00;0.00;;;;;;;28.86;60.23;100317.41;5073039;28;20040;-70
2023/09/18 09:07:05;;;;;;;0.00;0.00;;;;;;;27.94;62.66;100336.34;5072953;28;20040;-70
2023/09/18 09:09:30;;;;;;;0.00;0.00;;;;;;;28.34;61.08;100326.78;5073050;28;20074;-69
2023/09/18 09:11:56;;;;;;;0.00;0.00;;;;;;;27.92;62.11;100339.47;5073142;28;20505;-69
2023/09/18 09:14:27;;;;;;;0.00;0.00;;;;;;;28.43;61.77;100327.44;5073214;28;20028;-69
2023/09/18 09:16:53;;;;;;;0.00;0.00;;;;;;;28.57;60.58;100346.38;5072702;28;20048;-70
2023/09/18 09:19:29;;;;;;;0.00;0.00;;;;;;;28.92;59.12;100358.28;5072802;28;20043;-69
2023/09/18 09:21:57;;;;;;;0.00;0.00;;;;;;;28.10;61.36;100356.53;5072874;28;20048;-69
2023/09/18 09:24:41;;;;;;;0.00;0.00;;;;;;;28.20;62.16;100356.84;5072764;28;20491;-70
2023/09/18 09:27:08;;;;;;;0.00;0.00;;;;;;;28.61;61.02;100350.03;5072334;28;20056;-69
2023/09/18 09:29:34;;;;;;;0.00;0.00;;;;;;;28.66;60.30;100354.50;5072705;28;20032;-69
2023/09/18 09:32:16;;;;;;;0.00;0.00;;;;;;;28.66;60.41;100346.19;5073134;28;20443;-69
2023/09/18 09:34:43;;;;;;;0.00;0.00;;;;;;;28.35;60.47;100363.53;5054307;28;20039;-69
2023/09/18 09:37:08;;;;;;;0.00;0.00;;;;;;;28.56;59.53;100353.03;5072351;28;20036;-68
2023/09/18 09:39:34;;;;;;;0.00;0.00;;;;;;;28.93;58.26;100354.38;5089440;28;20040;-69
2023/09/18 09:42:03;;;;;;;0.00;0.00;;;;;;;28.27;61.00;100356.19;5092284;28;20040;-70
2023/09/18 09:44:32;;;;;;;0.00;0.00;;;;;;;28.92;58.54;100358.28;5087074;28;20369;-67
2023/09/18 09:46:59;;;;;;;0.00;0.00;;;;;;;29.12;57.66;100348.88;5088461;28;20019;-69
2023/09/18 09:49:27;;;;;;;0.00;0.00;;;;;;;28.79;58.33;100365.09;5071855;28;20033;-68
2023/09/18 09:51:54;;;;;;;0.00;0.00;;;;;;;28.75;58.82;100364.19;5071931;28;20064;-68
2023/09/18 09:54:34;;;;;;;0.00;0.00;;;;;;;28.48;58.77;100365.84;5071941;28;20133;-68
2023/09/18 09:57:02;;;;;;;0.00;0.00;;;;;;;28.92;58.01;100357.47;5071515;28;20040;-68
2023/09/18 09:59:29;;;;;;;0.00;0.00;;;;;;;28.75;58.01;100363.38;5071738;28;20043;-68
2023/09/18 10:01:58;;;;;;;0.00;0.00;;;;;;;28.98;58.08;100367.09;5072157;28;20103;-70
2023/09/18 10:04:27;;;;;;;0.00;0.00;;;;;;;28.86;57.56;100364.44;5071892;28;20171;-69
2023/09/18 10:06:58;;;;;;;0.00;0.00;;;;;;;29.16;57.10;100371.94;5071608;28;20052;-69
2023/09/18 10:09:28;;;;;;;0.00;0.00;;;;;;;28.90;56.28;100385.50;5071777;28;20028;-69
2023/09/18 10:11:56;;;;;;;0.00;0.00;;;;;;;28.67;57.91;100394.78;5071617;28;20123;-68
2023/09/18 10:14:31;;;;;;;0.00;0.00;;;;;;;30.07;53.39;100378.63;5071864;28;20032;-69
2023/09/18 10:16:58;;;;;;;0.00;0.00;;;;;;;29.16;55.41;100388.53;5071047;28;20048;-69
2023/09/18 10:19:33;;;;;;;0.00;0.00;;;;;;;29.21;56.73;100371.63;5071463;28;20614;-69
2023/09/18 10:22:26;;;;;;;0.00;0.00;;;;;;;29.47;54.27;100377.38;5071357;28;20037;-68
2023/09/18 10:25:00;;;;;;;0.00;0.00;;;;;;;30.30;52.16;100368.41;5071530;28;20032;-70
2023/09/18 10:27:26;;;;;;;0.00;0.00;;;;;;;29.36;54.75;100370.00;5071226;28;20079;-69
2023/09/18 10:29:54;;;;;;;0.00;0.00;;;;;;;28.62;54.22;100393.09;5071093;28;20064;-67
2023/09/18 10:32:21;;;;;;;0.00;0.00;;;;;;;28.72;54.38;100392.56;5071450;28;20027;-69
2023/09/18 10:34:48;;;;;;;0.00;0.00;;;;;;;27.92;56.01;100396.66;5079971;28;20047;-69
2023/09/18 10:37:14;;;;;;;0.00;0.00;;;;;;;28.93;54.10;100390.34;5073371;28;20042;-70
2023/09/18 10:39:41;;;;;;;0.00;0.00;;;;;;;29.18;52.64;100397.28;5091249;28;20122;-69
2023/09/18 10:42:08;;;;;;;0.00;0.00;;;;;;;29.56;52.02;100393.78;5091607;28;20074;-69
2023/09/18 10:44:35;;;;;;;0.00;0.00;;;;;;;28.42;54.02;100410.72;5084691;28;20384;-67
2023/09/18 10:47:05;;;;;;;0.00;0.00;;;;;;;27.69;54.97;100401.94;5091372;28;20388;-68
2023/09/18 10:49:31;;;;;;;0.00;0.00;;;;;;;27.63;55.95;100411.59;5081186;28;20044;-69
2023/09/18 10:51:58;;;;;;;0.00;0.00;;;;;;;28.76;53.35;100417.53;5070768;28;20029;-69
2023/09/18 10:54:25;;;;;;;0.00;0.00;;;;;;;28.95;52.32;100409.34;5070866;28;20046;-70
2023/09/18 10:56:52;;;;;;;0.00;0.00;;;;;;;29.41;50.93;100411.25;5070595;28;20039;-69
2023/09/18 10:59:18;;;;;;;0.00;0.00;;;;;;;29.67;50.16;100408.66;5071306;28;20097;-70
2023/09/18 11:01:45;;;;;;;0.00;0.00;;;;;;;28.94;52.59;100408.53;5070419;28;20037;-68
2023/09/18 11:04:14;;;;;;;0.00;0.00;;;;;;;29.56;51.43;100396.56;5070508;28;20124;-68
2023/09/18 11:06:54;;;;;;;0.00;0.00;;;;;;;30.07;50.22;100398.03;5070704;28;20043;-69
2023/09/18 11:09:22;;;;;;;0.00;0.00;;;;;;;29.11;51.76;100410.91;5069547;28;20040;-68
2023/09/18 11:12:04;;;;;;;0.00;0.00;;;;;;;28.81;53.75;100407.03;5051982;28;20420;-69
2023/09/18 11:14:44;;;;;;;0.00;0.00;;;;;;;28.38;54.20;100409.81;5069659;28;20052;-68
2023/09/18 11:17:28;;;;;;;;;;;;;;;28.90;53.37;100404.88;5071145;28;20047;-70
2023/09/18 11:20:23;;;;;;;0.00;0.00;;;;;;;29.34;53.00;100411.91;5070375;28;19997;-69
2023/09/18 11:23:09;;;;;;;0.00;0.00;;;;;;;28.30;60.24;100397.78;5070064;28;20120;-73
2023/09/18 11:25:45;;;;;;;0.00;0.00;;;;;;;28.45;59.65;100402.53;5070189;28;20028;-71